Time;durP1;ratioP1;P1;durP2;ratioP2;P2;SDS_P1;SDS_P2;PMS_P1;PMS_P2;Temp;Humidity;BMP_temperature;BMP_pressure;BME280_temperature;BME280_humidity;BME280_pressure;Samples;Min_cycle;Max_cycle;Signal;HPM_P1;HPM_P2
2023/01/04 00:00:25;;;;;;;;;;;;;;;3.16;100.00;93741.91;5074757;28;20040;-81
2023/01/04 00:02:50;;;;;;;;;;;;;;;3.17;100.00;93732.34;5057593;28;19924;-81
2023/01/04 00:05:16;;;;;;;;;;;;;;;3.17;100.00;93730.53;5057278;28;19963;-80
2023/01/04 00:07:41;;;;;;;;;;;;;;;3.19;100.00;93725.16;5057301;28;19951;-81
2023/01/04 00:10:07;;;;;;;;;;;;;;;3.16;100.00;93725.59;5075111;28;19924;-80
2023/01/04 00:12:33;;;;;;;;;;;;;;;3.17;100.00;93727.16;5057506;28;19957;-80
2023/01/04 00:14:59;;;;;;;;;;;;;;;3.13;100.00;93725.00;5075351;28;20294;-81
2023/01/04 00:17:24;;;;;;;;;;;;;;;3.10;100.00;93725.41;5056959;28;19973;-80
2023/01/04 00:19:50;;;;;;;;;;;;;;;3.10;100.00;93714.25;5075269;28;19916;-81
2023/01/04 00:22:15;;;;;;;;;;;;;;;3.09;100.00;93713.47;5075105;28;19979;-80
2023/01/04 00:24:40;;;;;;;;;;;;;;;3.10;100.00;93716.84;5075078;28;19912;-80
2023/01/04 00:27:06;;;;;;;;;;;;;;;3.08;100.00;93714.47;5075142;28;19952;-79
2023/01/04 00:29:32;;;;;;;;;;;;;;;3.10;100.00;93714.25;5040265;28;19924;-80
2023/01/04 00:31:57;;;;;;;;;;;;;;;3.10;100.00;93712.47;5040850;28;20117;-81
2023/01/04 00:34:22;;;;;;;;;;;;;;;3.11;100.00;93716.66;5074566;28;19962;-81
2023/01/04 00:36:48;;;;;;;;;;;;;;;3.11;100.00;93715.88;5056975;28;20213;-80
2023/01/04 00:39:14;;;;;;;;;;;;;;;3.08;100.00;93706.69;5074938;28;20417;-81
2023/01/04 00:41:43;;;;;;;;;;;;;;;3.06;100.00;93711.31;5074520;28;19916;-81
2023/01/04 00:44:09;;;;;;;;;;;;;;;3.07;100.00;93712.88;5056734;28;19986;-82
2023/01/04 00:46:35;;;;;;;;;;;;;;;3.08;100.00;93719.63;5074506;28;20069;-82
2023/01/04 00:49:00;;;;;;;;;;;;;;;3.08;100.00;93714.47;5056281;28;19916;-82
2023/01/04 00:51:26;;;;;;;;;;;;;;;3.07;100.00;93718.06;5074746;28;19919;-82
2023/01/04 00:53:52;;;;;;;;;;;;;;;3.06;100.00;93721.66;5057330;28;20007;-82
2023/01/04 00:56:17;;;;;;;;;;;;;;;3.05;100.00;93709.72;5078203;28;19923;-81
2023/01/04 00:58:43;;;;;;;;;;;;;;;3.04;100.00;93718.50;5084904;28;19938;-81
2023/01/04 01:01:08;;;;;;;;;;;;;;;3.04;100.00;93721.09;5102529;28;19943;-81
2023/01/04 01:03:34;;;;;;;;;;;;;;;3.05;100.00;93722.66;5102455;28;19915;-82
2023/01/04 01:06:00;;;;;;;;;;;;;;;3.03;100.00;93724.66;5096289;28;19974;-82
2023/01/04 01:08:26;;;;;;;;;;;;;;;3.03;100.00;93727.25;5077541;28;19951;-82
2023/01/04 01:10:52;;;;;;;;;;;;;;;3.03;100.00;93722.06;5077074;28;20278;-82
2023/01/04 01:13:18;;;;;;;;;;;;;;;3.05;100.00;93721.88;5060364;28;20320;-82
2023/01/04 01:15:43;;;;;;;;;;;;;;;3.05;100.00;93729.63;5077217;28;19916;-82
2023/01/04 01:18:09;;;;;;;;;;;;;;;3.05;100.00;93727.03;5094817;28;19923;-82
2023/01/04 01:20:34;;;;;;;;;;;;;;;3.04;100.00;93728.84;5076686;28;20747;-82
2023/01/04 01:23:00;;;;;;;;;;;;;;;3.04;100.00;93736.59;5094617;28;19912;-82
2023/01/04 01:25:26;;;;;;;;;;;;;;;3.05;100.00;93730.41;5095317;28;19916;-82
2023/01/04 01:27:51;;;;;;;;;;;;;;;3.05;100.00;93733.00;5077148;28;20035;-82
2023/01/04 01:30:16;;;;;;;;;;;;;;;3.06;100.00;93737.19;5076595;28;20204;-82
2023/01/04 01:32:42;;;;;;;;;;;;;;;3.06;100.00;93733.78;5094388;28;20007;-82
2023/01/04 01:35:07;;;;;;;;;;;;;;;3.06;100.00;93738.97;5076178;28;19916;-82
2023/01/04 01:37:33;;;;;;;;;;;;;;;3.05;100.00;93733.00;5094593;28;19916;-82
2023/01/04 01:39:58;;;;;;;;;;;;;;;3.04;100.00;93730.63;5075779;28;19935;-81
2023/01/04 01:42:24;;;;;;;;;;;;;;;3.05;100.00;93727.81;5094529;28;19947;-81
2023/01/04 01:45:10;;;;;;;;;;;;;;;3.03;100.00;93722.06;5094782;28;19985;-81
2023/01/04 01:47:41;;;;;;;;;;;;;;;3.03;100.00;93718.69;5092237;28;20297;-81
2023/01/04 01:50:17;;;;;;;;;;;;;;;3.02;100.00;93725.66;5093746;28;19941;-81
2023/01/04 01:52:43;;;;;;;;;;;;;;;3.01;100.00;93729.25;5094117;28;20308;-81
2023/01/04 01:55:10;;;;;;;;;;;;;;;3.03;100.00;93736.81;5094006;28;19981;-81
2023/01/04 01:57:36;;;;;;;;;;;;;;;3.04;100.00;93738.38;5094142;28;20400;-81
2023/01/04 02:00:11;;;;;;;;;;;;;;;3.05;100.00;93739.97;5093680;28;19916;-81
2023/01/04 02:02:44;;;;;;;;;;;;;;;3.04;100.00;93739.19;5094097;28;20373;-79
2023/01/04 02:05:09;;;;;;;;;;;;;;;3.02;100.00;93735.22;5094205;28;19912;-82
2023/01/04 02:07:36;;;;;;;;;;;;;;;3.00;100.00;93743.19;5094084;28;19919;-82
2023/01/04 02:10:01;;;;;;;;;;;;;;;2.99;100.00;93740.81;5093635;28;19939;-82
2023/01/04 02:12:27;;;;;;;;;;;;;;;2.97;100.00;93741.00;5075875;28;19912;-82
2023/01/04 02:14:52;;;;;;;;;;;;;;;2.98;100.00;93742.59;5092634;28;19951;-82
2023/01/04 02:17:24;;;;;;;;;;;;;;;2.96;100.00;93736.84;5093634;28;19920;-82
2023/01/04 02:19:53;;;;;;;;;;;;;;;2.95;100.00;93730.09;5093771;28;19916;-82
2023/01/04 02:22:35;;;;;;;;;;;;;;;2.96;100.00;93730.88;5093822;28;19916;-82
2023/01/04 02:25:06;;;;;;;;;;;;;;;2.97;100.00;93728.06;5093331;28;19912;-82
2023/01/04 02:27:40;;;;;;;;;;;;;;;2.95;100.00;93724.09;5096058;28;20395;-80
2023/01/04 02:30:15;;;;;;;;;;;;;;;2.93;100.00;93732.09;5085281;28;20095;-80
2023/01/04 02:32:46;;;;;;;;;;;;;;;2.97;100.00;93727.28;5067129;28;19912;-79
2023/01/04 02:35:18;;;;;;;;;;;;;;;2.97;100.00;93720.31;5097524;28;20020;-80
2023/01/04 02:37:46;;;;;;;;;;;;;;;2.99;100.00;93725.28;5094106;28;19916;-80
2023/01/04 02:40:38;;;;;;;;;;;;;;;2.98;100.00;93721.91;5094265;28;20424;-83
2023/01/04 02:46:00;;;;;;;;;;;;;;;2.98;100.00;93715.94;5093749;28;19919;-81
2023/01/04 02:51:31;;;;;;;;;;;;;;;2.96;100.00;93710.19;5093095;28;19919;-81
2023/01/04 02:54:03;;;;;;;;;;;;;;;2.95;100.00;93708.59;5075633;28;20010;-81
2023/01/04 02:56:51;;;;;;;;;;;;;;;2.96;100.00;93710.97;5075281;28;19919;-81
2023/01/04 02:59:17;;;;;;;;;;;;;;;2.99;100.00;93712.34;5092394;28;19916;-81
2023/01/04 03:07:39;;;;;;;;;;;;;;;3.03;100.00;93706.53;5054987;28;19913;-81
2023/01/04 03:10:07;;;;;;;;;;;;;;;3.04;100.00;93702.97;5073089;28;19919;-81
2023/01/04 03:12:37;;;;;;;;;;;;;;;3.05;100.00;93709.72;5055133;28;19913;-81
2023/01/04 03:15:06;;;;;;;;;;;;;;;3.07;100.00;93712.09;5071628;28;20007;-81
2023/01/04 03:17:35;;;;;;;;;;;;;;;3.06;100.00;93710.50;5072799;28;19969;-80
2023/01/04 03:20:01;;;;;;;;;;;;;;;3.06;100.00;93707.91;5071546;28;19952;-81
2023/01/04 03:36:53;;;;;;;;;;;;;;;3.10;100.00;93709.09;5076242;28;19919;-81
2023/01/04 03:50:48;;;;;;;;;;;;;;;3.09;100.00;93705.72;5075646;28;19916;-80
2023/01/04 03:53:14;;;;;;;;;;;;;;;3.08;100.00;93705.91;5075661;28;20007;-80
2023/01/04 03:55:41;;;;;;;;;;;;;;;3.08;100.00;93703.31;5075008;28;20007;-80
2023/01/04 03:58:06;;;;;;;;;;;;;;;3.08;100.00;93700.75;5074067;28;20015;-81
2023/01/04 04:00:32;;;;;;;;;;;;;;;3.10;100.00;93701.31;5075367;28;20448;-80
2023/01/04 04:03:06;;;;;;;;;;;;;;;3.10;100.00;93702.13;5057977;28;19916;-81
2023/01/04 04:08:30;;;;;;;;;;;;;;;3.16;100.00;93694.53;5075612;28;19913;-81
2023/01/04 04:10:55;;;;;;;;;;;;;;;3.15;100.00;93698.09;5075421;28;19916;-81
2023/01/04 04:13:21;;;;;;;;;;;;;;;3.13;100.00;93699.13;5075401;28;19909;-80
2023/01/04 04:15:47;;;;;;;;;;;;;;;3.13;100.00;93690.56;5057780;28;19972;-81
2023/01/04 04:18:12;;;;;;;;;;;;;;;3.12;100.00;93694.16;5057306;28;19913;-81
2023/01/04 04:20:38;;;;;;;;;;;;;;;3.10;100.00;93691.75;5056855;28;19916;-81
2023/01/04 04:23:03;;;;;;;;;;;;;;;3.09;100.00;93695.38;5057320;28;19923;-80
2023/01/04 04:25:29;;;;;;;;;;;;;;;3.07;100.00;93694.78;5075205;28;19919;-80
2023/01/04 04:27:54;;;;;;;;;;;;;;;3.07;100.00;93694.78;5075128;28;20015;-80
2023/01/04 04:30:20;;;;;;;;;;;;;;;3.08;100.00;93692.97;5075060;28;20003;-80
2023/01/04 04:32:45;;;;;;;;;;;;;;;3.07;100.00;93694.00;5075267;28;20609;-81
2023/01/04 04:35:10;;;;;;;;;;;;;;;3.05;100.00;93690.81;5074500;28;19942;-81
2023/01/04 04:37:36;;;;;;;;;;;;;;;3.04;100.00;93692.63;5074150;28;20294;-81
2023/01/04 04:40:02;;;;;;;;;;;;;;;3.04;100.00;93696.97;5040179;28;19966;-81
2023/01/04 04:42:28;;;;;;;;;;;;;;;3.04;100.00;93692.63;5056789;28;19916;-81
2023/01/04 04:44:53;;;;;;;;;;;;;;;3.05;100.00;93696.00;5075199;28;19943;-81
2023/01/04 04:47:19;;;;;;;;;;;;;;;3.04;100.00;93697.81;5074755;28;19920;-81
2023/01/04 04:49:44;;;;;;;;;;;;;;;3.03;100.00;93693.59;5057000;28;20378;-81
2023/01/04 04:52:10;;;;;;;;;;;;;;;3.02;100.00;93694.63;5056516;28;19973;-81
2023/01/04 04:54:35;;;;;;;;;;;;;;;3.01;100.00;93693.03;5074768;28;19916;-81
2023/01/04 04:57:00;;;;;;;;;;;;;;;3.02;100.00;93686.06;5074232;28;19944;-81
2023/01/04 04:59:26;;;;;;;;;;;;;;;3.03;100.00;93685.06;5058347;28;19913;-81
2023/01/04 05:01:51;;;;;;;;;;;;;;;3.04;100.00;93686.63;5094497;28;19957;-81
2023/01/04 05:04:18;;;;;;;;;;;;;;;3.05;100.00;93693.41;5094841;28;19916;-81
2023/01/04 05:06:47;;;;;;;;;;;;;;;3.05;100.00;93694.19;5095136;28;19920;-81
2023/01/04 05:09:13;;;;;;;;;;;;;;;3.03;100.00;93696.19;5095137;28;19934;-81
2023/01/04 05:14:22;;;;;;;;;;;;;;;3.03;100.00;93696.19;5095158;28;19912;-81
2023/01/04 05:16:48;;;;;;;;;;;;;;;3.02;100.00;93692.03;5076401;28;20373;-81
2023/01/04 05:19:13;;;;;;;;;;;;;;;3.02;100.00;93694.63;5094527;28;19931;-81
2023/01/04 05:21:39;;;;;;;;;;;;;;;3.03;100.00;93690.25;5092954;28;19919;-81
2023/01/04 05:24:05;;;;;;;;;;;;;;;3.04;100.00;93696.97;5094036;28;19930;-80
2023/01/04 05:26:31;;;;;;;;;;;;;;;3.03;100.00;93690.25;5094122;28;19912;-81
2023/01/04 05:28:56;;;;;;;;;;;;;;;3.02;100.00;93692.03;5095987;28;20001;-81
2023/01/04 05:31:22;;;;;;;;;;;;;;;3.03;100.00;93705.75;5113982;28;19926;-81
2023/01/04 05:33:48;;;;;;;;;;;;;;;3.00;100.00;93696.63;5096108;28;19911;-81
2023/01/04 05:36:13;;;;;;;;;;;;;;;3.00;100.00;93695.84;5078920;28;20300;-81
2023/01/04 05:38:38;;;;;;;;;;;;;;;2.99;100.00;93699.41;5113578;28;19951;-80
2023/01/04 05:42:23;;;;;;;;;;;;;;;2.98;100.00;93703.00;5114108;28;19976;-81
2023/01/04 05:43:49;;;;;;;;;;;;;;;2.97;100.00;93702.19;5113345;28;19938;-81
2023/01/04 05:46:15;;;;;;;;;;;;;;;2.97;100.00;93704.78;5095531;28;19976;-80
2023/01/04 05:48:40;;;;;;;;;;;;;;;2.99;100.00;93705.38;5113983;28;19916;-80
2023/01/04 05:51:05;;;;;;;;;;;;;;;2.98;100.00;93703.81;5114014;28;20303;-81
2023/01/04 05:53:31;;;;;;;;;;;;;;;2.98;100.00;93701.22;5113864;28;19915;-80
2023/01/04 05:55:56;;;;;;;;;;;;;;;2.96;100.00;93705.81;5095788;28;19912;-81
2023/01/04 05:58:22;;;;;;;;;;;;;;;2.93;100.00;93706.22;5078645;28;20400;-81
2023/01/04 06:00:47;;;;;;;;;;;;;;;2.90;100.00;93709.22;5087774;28;19967;-81
2023/01/04 06:03:12;;;;;;;;;;;;;;;2.89;100.00;93710.22;5075785;28;20019;-81
2023/01/04 06:05:38;;;;;;;;;;;;;;;2.87;100.00;93712.22;5093341;28;20354;-81
2023/01/04 06:08:04;;;;;;;;;;;;;;;2.87;100.00;93712.22;5093305;28;19908;-81
2023/01/04 06:10:29;;;;;;;;;;;;;;;2.85;100.00;93707.25;5093014;28;19919;-81
2023/01/04 06:12:55;;;;;;;;;;;;;;;2.85;100.00;93709.84;5093324;28;19919;-81
2023/01/04 06:15:20;;;;;;;;;;;;;;;2.83;100.00;93716.22;5074672;28;20049;-81
2023/01/04 06:17:46;;;;;;;;;;;;;;;2.81;100.00;93718.22;5093639;28;19916;-81
2023/01/04 06:20:11;;;;;;;;;;;;;;;2.79;100.00;93721.03;5074701;28;19923;-81
2023/01/04 06:22:37;;;;;;;;;;;;;;;2.80;100.00;93719.25;5093480;28;19956;-81
2023/01/04 06:25:03;;;;;;;;;;;;;;;2.80;100.00;93725.19;5055023;28;19916;-80
2023/01/04 06:27:28;;;;;;;;;;;;;;;2.79;100.00;93721.03;5089195;28;20396;-80
2023/01/04 06:29:54;;;;;;;;;;;;;;;2.78;100.00;93723.81;5093042;28;19916;-80
2023/01/04 06:32:19;;;;;;;;;;;;;;;2.79;100.00;93720.22;5093578;28;19922;-80
2023/01/04 06:34:45;;;;;;;;;;;;;;;2.78;100.00;93726.41;5074966;28;20352;-80
2023/01/04 06:37:10;;;;;;;;;;;;;;;2.79;100.00;93727.97;5092812;28;20369;-80
2023/01/04 06:39:36;;;;;;;;;;;;;;;2.79;100.00;93722.81;5093276;28;19908;-81
2023/01/04 06:42:02;;;;;;;;;;;;;;;2.79;100.00;93725.41;5090217;28;19956;-80
2023/01/04 06:44:27;;;;;;;;;;;;;;;2.78;100.00;93727.19;5070560;28;19977;-80
2023/01/04 06:46:52;;;;;;;;;;;;;;;2.76;100.00;93731.78;5093617;28;20034;-81
2023/01/04 06:49:18;;;;;;;;;;;;;;;2.77;100.00;93732.56;5075393;28;19951;-81
2023/01/04 06:51:43;;;;;;;;;;;;;;;2.77;100.00;93742.91;5075689;28;20014;-81
2023/01/04 06:54:10;;;;;;;;;;;;;;;2.75;100.00;93740.56;5100368;28;19969;-80
2023/01/04 06:56:36;;;;;;;;;;;;;;;2.77;100.00;93740.31;5082351;28;19951;-80
2023/01/04 06:59:01;;;;;;;;;;;;;;;2.76;100.00;93736.94;5100319;28;20378;-80
2023/01/04 07:01:27;;;;;;;;;;;;;;;2.76;100.00;93731.78;5066582;28;19916;-81
2023/01/04 07:03:52;;;;;;;;;;;;;;;2.79;100.00;93735.75;5098894;28;19915;-81
2023/01/04 07:06:18;;;;;;;;;;;;;;;2.81;100.00;93744.88;5080274;28;19916;-81
2023/01/04 07:08:43;;;;;;;;;;;;;;;2.85;100.00;93745.25;5079796;28;19969;-81
2023/01/04 07:11:09;;;;;;;;;;;;;;;2.89;100.00;93751.63;5097532;28;19944;-81
2023/01/04 07:13:34;;;;;;;;;;;;;;;2.88;100.00;93750.00;5098010;28;20012;-80
2023/01/04 07:15:59;;;;;;;;;;;;;;;2.90;100.00;93758.34;5079733;28;19916;-81
2023/01/04 07:18:25;;;;;;;;;;;;;;;2.93;100.00;93757.97;5059033;28;19924;-80
2023/01/04 07:20:50;;;;;;;;;;;;;;;2.98;100.00;93762.50;5096427;28;19970;-80
2023/01/04 07:23:16;;;;;;;;;;;;;;;3.01;100.00;93757.69;5079147;28;19961;-80
2023/01/04 07:25:41;;;;;;;;;;;;;;;3.05;100.00;93763.25;5097701;28;19947;-81
2023/01/04 07:28:07;;;;;;;;;;;;;;;3.09;100.00;93764.44;5096829;28;20349;-84
2023/01/04 07:30:32;;;;;;;;;;;;;;;3.70;100.00;93758.59;5086488;28;19924;-84
2023/01/04 07:32:58;;;;;;;;;;;;;;;4.93;100.00;93766.47;5059433;28;19916;-84
2023/01/04 07:35:23;;;;;;;;;;;;;;;6.07;100.00;93760.41;5070437;28;19924;-82
2023/01/04 07:37:49;;;;;;;;;;;;;;;7.05;100.00;93761.34;5061722;28;20502;-85
2023/01/04 07:40:15;;;;;;;;;;;;;;;8.02;100.00;93768.16;5080219;28;19920;-84
2023/01/04 07:42:40;;;;;;;;;;;;;;;8.90;100.00;93768.28;5078642;28;19916;-80
2023/01/04 07:45:06;;;;;;;;;;;;;;;9.64;100.00;93774.78;5098408;28;19912;-80
2023/01/04 07:47:32;;;;;;;;;;;;;;;10.51;100.00;93772.78;5088473;28;19919;-81
2023/01/04 07:49:58;;;;;;;;;;;;;;;11.15;100.00;93768.34;5101191;28;19934;-81
2023/01/04 07:52:24;;;;;;;;;;;;;;;11.94;100.00;93766.38;5098231;28;20306;-81
2023/01/04 07:54:50;;;;;;;;;;;;;;;12.45;100.00;93763.69;5100412;28;19919;-81
2023/01/04 07:57:15;;;;;;;;;;;;;;;13.03;100.00;93765.88;5100626;28;19919;-81
2023/01/04 07:59:40;;;;;;;;;;;;;;;13.80;100.00;93768.09;5113377;28;20360;-81
2023/01/04 08:02:08;;;;;;;;;;;;;;;14.07;87.71;93757.91;5108263;28;20008;-79
2023/01/04 08:04:34;;;;;;;;;;;;;;;14.63;93.31;93761.84;5095994;28;19912;-83
2023/01/04 08:06:59;;;;;;;;;;;;;;;15.33;85.85;93771.06;5096098;28;19931;-82
2023/01/04 08:09:25;;;;;;;;;;;;;;;15.00;73.07;93763.06;5079342;28;20026;-82
2023/01/04 08:11:50;;;;;;;;;;;;;;;15.78;77.91;93760.97;5097112;28;19912;-81
2023/01/04 08:14:16;;;;;;;;;;;;;;;16.10;74.97;93762.88;5073669;28;19926;-81
2023/01/04 08:16:42;;;;;;;;;;;;;;;16.53;72.38;93767.19;5081950;28;20014;-82
2023/01/04 08:19:11;;;;;;;;;;;;;;;16.92;66.48;93769.38;5081988;28;19970;-82
2023/01/04 08:21:37;;;;;;;;;;;;;;;17.71;66.04;93772.81;5095843;28;20394;-82
2023/01/04 08:24:03;;;;;;;;;;;;;;;17.88;63.75;93775.63;5095885;28;19958;-81
2023/01/04 08:26:28;;;;;;;;;;;;;;;18.17;62.41;93777.06;5106250;28;19939;-82
2023/01/04 08:28:55;;;;;;;;;;;;;;;18.59;60.82;93769.69;5101066;28;19916;-83
2023/01/04 08:31:25;;;;;;;;;;;;;;;19.32;56.04;93773.56;5117402;28;20246;-83
2023/01/04 08:33:51;;;;;;;;;;;;;;;19.32;55.70;93762.19;5067642;28;19973;-83
2023/01/04 08:36:24;;;;;;;;;;;;;;;19.19;56.65;93763.84;5080594;28;20444;-83
2023/01/04 08:38:52;;;;;;;;;;;;;;;19.28;57.03;93771.84;5081444;28;20018;-83
2023/01/04 08:41:18;;;;;;;;;;;;;;;19.62;52.75;93768.47;5098181;28;19908;-83
2023/01/04 08:43:43;;;;;;;;;;;;;;;19.32;55.33;93768.25;5080955;28;19939;-83
2023/01/04 08:46:10;;;;;;;;;;;;;;;19.64;57.15;93774.25;5080294;28;19912;-84
2023/01/04 08:48:35;;;;;;;;;;;;;;;19.56;56.29;93775.00;5080345;28;19938;-82
2023/01/04 08:51:02;;;;;;;;;;;;;;;19.59;54.25;93771.75;5098852;28;19962;-83
2023/01/04 08:53:28;;;;;;;;;;;;;;;18.14;57.11;93770.50;5080888;28;20403;-82
2023/01/04 08:55:54;;;;;;;;;;;;;;;16.88;63.32;93775.56;5097838;28;19943;-82
2023/01/04 08:58:20;;;;;;;;;;;;;;;16.90;63.64;93773.41;5079087;28;19916;-82
2023/01/04 09:00:45;;;;;;;;;;;;;;;17.50;62.55;93772.47;5080569;28;20044;-82
2023/01/04 09:03:11;;;;;;;;;;;;;;;18.29;58.49;93774.66;5097531;28;20318;-82
2023/01/04 09:05:37;;;;;;;;;;;;;;;18.99;54.42;93769.72;5089861;28;20365;-81
2023/01/04 09:08:02;;;;;;;;;;;;;;;18.98;53.01;93768.94;5097813;28;20006;-83
2023/01/04 09:10:28;;;;;;;;;;;;;;;20.70;47.83;93765.91;5097944;28;19912;-80
2023/01/04 09:12:53;;;;;;;;;;;;;;;20.45;47.51;93758.75;5076124;28;20017;-82
2023/01/04 09:15:19;;;;;;;;;;;;;;;21.57;45.41;93770.03;5085232;28;19916;-81
2023/01/04 09:17:44;;;;;;;;;;;;;;;20.77;46.89;93762.75;5095960;28;19926;-82
2023/01/04 09:20:09;;;;;;;;;;;;;;;20.23;48.91;93762.38;5079881;28;19962;-82
2023/01/04 09:22:35;;;;;;;;;;;;;;;20.76;47.75;93759.31;5078238;28;19920;-82
2023/01/04 09:25:00;;;;;;;;;;;;;;;20.38;48.83;93761.88;5098574;28;19919;-81
2023/01/04 09:27:26;;;;;;;;;;;;;;;20.74;47.69;93761.50;5079839;28;19916;-81
2023/01/04 09:29:51;;;;;;;;;;;;;;;20.32;48.23;93766.56;5097747;28;20041;-81
2023/01/04 09:32:17;;;;;;;;;;;;;;;20.15;44.06;93755.97;5097876;28;19912;-81
2023/01/04 09:34:43;;;;;;;;;;;;;;;18.84;46.95;93766.38;5079543;28;19916;-81
2023/01/04 09:37:08;;;;;;;;;;;;;;;18.77;48.23;93776.66;5077192;28;19924;-81
2023/01/04 09:39:33;;;;;;;;;;;;;;;18.80;50.02;93775.25;5097314;28;19916;-81
2023/01/04 09:42:02;;;;;;;;;;;;;;;19.27;48.32;93772.91;5078038;28;19918;-80
2023/01/04 09:44:36;;;;;;;;;;;;;;;19.15;50.67;93778.81;5102913;28;19912;-82
2023/01/04 09:47:25;;;;;;;;;;;;;;;18.14;53.15;93785.63;5100244;28;19961;-81
2023/01/04 09:49:53;;;;;;;;;;;;;;;18.48;49.59;93782.41;5099693;28;19919;-85
2023/01/04 09:52:23;;;;;;;;;;;;;;;19.51;49.65;93780.47;5105106;28;19926;-85
2023/01/04 09:54:59;;;;;;;;;;;;;;;18.75;50.87;93770.84;5082470;28;19971;-85
2023/01/04 09:57:26;;;;;;;;;;;;;;;17.48;51.70;93775.41;5062627;28;19912;-85
2023/01/04 09:59:54;;;;;;;;;;;;;;;16.51;52.63;93774.63;5080128;28;19948;-85
2023/01/04 10:02:28;;;;;;;;;;;;;;;14.67;59.64;93773.41;5079075;28;19924;-85
2023/01/04 10:04:53;;;;;;;;;;;;;;;14.24;60.16;93768.00;5095233;28;19912;-85
2023/01/04 10:07:32;;;;;;;;;;;;;;;14.68;60.22;93769.72;5093986;28;19919;-85
2023/01/04 10:09:57;;;;;;;;;;;;;;;14.84;64.45;93769.53;5090663;28;20022;-85
2023/01/04 10:12:46;;;;;;;;;;;;;;;15.61;57.05;93762.25;5097442;28;19955;-85
2023/01/04 10:15:21;;;;;;;;;;;;;;;15.88;58.00;93765.34;5098609;28;19911;-84
2023/01/04 10:17:52;;;;;;;;;;;;;;;16.21;55.31;93752.91;5095972;28;19922;-85
2023/01/04 10:20:29;;;;;;;;;;;;;;;16.49;55.91;93752.97;5095521;28;20379;-84
2023/01/04 10:23:07;;;;;;;;;;;;;;;16.11;55.15;93755.72;5093362;28;20120;-85
2023/01/04 10:25:40;;;;;;;;;;;;;;;16.26;56.14;93746.75;5064138;28;20006;-84
2023/01/04 10:28:05;;;;;;;;;;;;;;;16.59;55.77;93739.56;5096242;28;19983;-85
2023/01/04 10:30:50;;;;;;;;;;;;;;;16.48;57.56;93743.47;5077469;28;19946;-84
2023/01/04 10:33:18;;;;;;;;;;;;;;;16.99;55.23;93742.53;5099060;28;19931;-85
2023/01/04 10:35:44;;;;;;;;;;;;;;;16.77;53.13;93736.03;5100764;28;19965;-84
2023/01/04 10:38:19;;;;;;;;;;;;;;;15.64;57.21;93726.56;5078211;28;19917;-84
2023/01/04 10:40:46;;;;;;;;;;;;;;;15.80;60.51;93722.66;5082577;28;19918;-84
2023/01/04 10:43:18;;;;;;;;;;;;;;;15.53;59.20;93718.00;5083150;28;19916;-85
2023/01/04 10:45:58;;;;;;;;;;;;;;;15.88;56.91;93723.09;5097279;28;20393;-84
2023/01/04 10:48:30;;;;;;;;;;;;;;;16.15;57.89;93717.88;5083272;28;19912;-84
2023/01/04 10:50:57;;;;;;;;;;;;;;;16.53;57.73;93716.97;5099192;28;19965;-84
2023/01/04 10:53:28;;;;;;;;;;;;;;;16.08;57.50;93711.41;5100525;28;20395;-84
2023/01/04 10:55:57;;;;;;;;;;;;;;;15.38;57.42;93711.13;5101271;28;19916;-84
2023/01/04 10:58:22;;;;;;;;;;;;;;;15.45;60.14;93721.31;5095690;28;19917;-84
2023/01/04 11:00:52;;;;;;;;;;;;;;;15.71;57.90;93715.69;5092837;28;20142;-85
2023/01/04 11:03:22;;;;;;;;;;;;;;;15.25;59.73;93711.06;5101970;28;19992;-84
2023/01/04 11:06:01;;;;;;;;;;;;;;;15.22;58.88;93711.59;5084403;28;19927;-84
2023/01/04 11:08:47;;;;;;;;;;;;;;;14.65;62.62;93707.03;5078808;28;19924;-85
2023/01/04 11:11:17;;;;;;;;;;;;;;;14.40;65.64;93707.28;5075260;28;19912;-81
2023/01/04 11:13:43;;;;;;;;;;;;;;;13.82;65.25;93708.84;5096550;28;20363;-80
2023/01/04 11:16:08;;;;;;;;;;;;;;;13.76;64.79;93696.81;5097474;28;19952;-80
2023/01/04 11:18:36;;;;;;;;;;;;;;;13.47;64.08;93707.28;5110315;28;20417;-80
2023/01/04 11:21:05;;;;;;;;;;;;;;;13.46;67.98;93695.97;5079786;28;19983;-79
2023/01/04 11:23:32;;;;;;;;;;;;;;;12.85;72.05;93693.69;5068101;28;19912;-81
2023/01/04 11:25:59;;;;;;;;;;;;;;;12.24;75.44;93702.56;5077178;28;19917;-81
2023/01/04 11:28:26;;;;;;;;;;;;;;;12.17;74.99;93691.56;5078110;28;19912;-81
2023/01/04 11:31:04;;;;;;;;;;;;;;;12.07;76.13;93687.91;5079526;28;19912;-80
2023/01/04 11:33:30;;;;;;;;;;;;;;;11.99;77.84;93690.28;5078925;28;19912;-79
2023/01/04 11:35:57;;;;;;;;;;;;;;;12.03;76.07;93686.06;5079513;28;19973;-78
2023/01/04 11:38:23;;;;;;;;;;;;;;;12.07;75.85;93680.03;5078743;28;19963;-78
2023/01/04 11:41:05;;;;;;;;;;;;;;;11.85;76.99;93675.03;5078871;28;19912;-79
2023/01/04 11:43:32;;;;;;;;;;;;;;;11.80;77.67;93669.81;5078602;28;19965;-79
2023/01/04 11:46:02;;;;;;;;;;;;;;;11.88;82.00;93669.28;5079054;28;19912;-79
2023/01/04 11:48:31;;;;;;;;;;;;;;;12.18;80.05;93662.44;5093197;28;19912;-81
2023/01/04 11:50:56;;;;;;;;;;;;;;;12.03;79.73;93665.88;5077875;28;20288;-82
2023/01/04 11:53:26;;;;;;;;;;;;;;;11.62;79.88;93660.66;5079248;28;19923;-81
2023/01/04 11:56:06;;;;;;;;;;;;;;;11.74;82.35;93649.88;5067118;28;19912;-80
2023/01/04 11:58:32;;;;;;;;;;;;;;;11.73;82.84;93653.56;5078741;28;19916;-80
2023/01/04 12:00:57;;;;;;;;;;;;;;;11.55;82.90;93656.69;5095318;28;19927;-79
2023/01/04 12:03:26;;;;;;;;;;;;;;;11.49;83.95;93652.53;5095797;28;20501;-79
2023/01/04 12:05:51;;;;;;;;;;;;;;;11.75;85.68;93656.69;5078984;28;19943;-79
2023/01/04 12:08:36;;;;;;;;;;;;;;;12.00;85.74;93653.28;5079681;28;20266;-80
2023/01/04 12:14:18;;;;;;;;;;;;;;;12.54;74.01;93649.19;5080739;28;19900;-81
2023/01/04 12:16:47;;;;;;;;;;;;;;;12.61;67.26;93636.53;5098609;28;20408;-81
2023/01/04 12:19:31;;;;;;;;;;;;;;;12.75;65.97;93633.31;5098381;28;19947;-83
2023/01/04 12:21:58;;;;;;;;;;;;;;;12.84;68.75;93629.06;5098552;28;19916;-81
2023/01/04 12:24:28;;;;;;;;;;;;;;;12.83;69.70;93635.34;5080345;28;19912;-81
2023/01/04 12:26:54;;;;;;;;;;;;;;;12.75;70.01;93628.06;5091909;28;20290;-80
2023/01/04 12:29:21;;;;;;;;;;;;;;;12.98;70.00;93631.84;5090446;28;19939;-81
2023/01/04 12:31:50;;;;;;;;;;;;;;;13.03;73.87;93626.56;5098573;28;19919;-81
2023/01/04 12:34:21;;;;;;;;;;;;;;;12.70;70.58;93626.25;5096416;28;20338;-82
2023/01/04 12:36:49;;;;;;;;;;;;;;;12.47;74.43;93625.81;5077225;28;19966;-81
2023/01/04 12:39:14;;;;;;;;;;;;;;;12.38;78.40;93613.50;5098901;28;19938;-81
2023/01/04 12:41:39;;;;;;;;;;;;;;;11.83;78.74;93611.56;5098792;28;20375;-81
2023/01/04 12:44:23;;;;;;;;;;;;;;;11.55;81.32;93617.38;5079368;28;19920;-82
2023/01/04 12:49:38;;;;;;;;;;;;;;;11.38;86.79;93613.19;5098437;28;19915;-81
2023/01/04 12:52:09;;;;;;;;;;;;;;;11.35;82.51;93613.72;5098732;28;19918;-82
2023/01/04 12:54:43;;;;;;;;;;;;;;;11.42;84.03;93608.22;5098690;28;19957;-81
2023/01/04 12:57:15;;;;;;;;;;;;;;;11.53;80.47;93608.97;5103999;28;19912;-81
2023/01/04 12:59:54;;;;;;;;;;;;;;;11.40;77.25;93600.59;5113230;28;19927;-81
2023/01/04 13:02:25;;;;;;;;;;;;;;;11.37;79.60;93595.91;5113144;28;19940;-81
2023/01/04 13:04:52;;;;;;;;;;;;;;;11.23;85.48;93593.00;5108396;28;20297;-82
2023/01/04 13:07:40;;;;;;;;;;;;;;;11.15;85.54;93592.75;5102887;28;19975;-83
2023/01/04 13:10:25;;;;;;;;;;;;;;;10.99;87.40;93590.13;5091350;28;19915;-85
2023/01/04 13:12:56;;;;;;;;;;;;;;;10.61;91.74;93599.25;5091671;28;19912;-85
2023/01/04 13:15:41;;;;;;;;;;;;;;;10.75;90.48;93586.44;5095420;28;19931;-86
2023/01/04 13:18:29;;;;;;;;;;;;;;;10.57;94.59;93583.25;5088731;28;19916;-86
2023/01/04 13:20:55;;;;;;;;;;;;;;;10.83;94.80;93571.00;5051829;28;19927;-86
2023/01/04 13:23:21;;;;;;;;;;;;;;;10.98;91.86;93567.59;5056753;28;19981;-87
2023/01/04 13:25:47;;;;;;;;;;;;;;;11.00;92.16;93564.72;5098529;28;19951;-86
2023/01/04 13:28:17;;;;;;;;;;;;;;;11.09;91.07;93562.34;5100943;28;19976;-84
2023/01/04 13:30:42;;;;;;;;;;;;;;;11.27;86.20;93563.66;5097979;28;20113;-84
2023/01/04 13:33:18;;;;;;;;;;;;;;;11.29;80.33;93567.59;5098669;28;20015;-84
2023/01/04 13:35:56;;;;;;;;;;;;;;;11.14;78.67;93559.72;5078057;28;19947;-84
2023/01/04 13:38:22;;;;;;;;;;;;;;;11.14;80.53;93555.25;5098289;28;19955;-84